createdAt,value
2022-08-09T00:00:34.764Z,1.35
2022-08-09T00:04:03.692Z,2.03
2022-08-09T00:06:19.384Z,1.40
2022-08-09T00:08:57.496Z,1.50
2022-08-09T00:11:58.708Z,1.60
2022-08-09T00:14:36.609Z,1.38
2022-08-09T00:18:04.586Z,1.67
2022-08-09T00:20:06.049Z,1.30
2022-08-09T00:22:39.155Z,1.27
2022-08-09T00:25:13.061Z,1.60
2022-08-09T00:27:48.275Z,1.48
2022-08-09T00:30:25.423Z,1.40
2022-08-09T00:32:59.863Z,1.58
2022-08-09T00:35:43.034Z,1.35
2022-08-09T00:38:16.836Z,1.80
2022-08-09T00:40:54.706Z,1.50
2022-08-09T00:44:13.562Z,1.40
2022-08-09T00:46:28.376Z,1.70
2022-08-09T00:49:20.656Z,1.70
2022-08-09T00:51:56.262Z,1.40
2022-08-09T00:54:31.367Z,1.67
2022-08-09T00:57:11.062Z,1.27
2022-08-09T00:59:52.515Z,1.58
2022-08-09T01:02:29.260Z,1.73
2022-08-09T01:05:14.402Z,1.60
2022-08-09T01:08:00.353Z,1.55
2022-08-09T01:10:40.168Z,1.60
2022-08-09T01:13:22.397Z,1.38
2022-08-09T01:15:59.070Z,1.48
2022-08-09T01:18:33.624Z,1.40
2022-08-09T01:21:20.369Z,1.80
2022-08-09T01:24:04.855Z,1.60
2022-08-09T01:27:00.981Z,1.70
2022-08-09T01:29:41.034Z,1.60
2022-08-09T01:32:46.101Z,1.45
2022-08-09T01:35:37.593Z,1.55
2022-08-09T01:38:16.943Z,1.63
2022-08-09T01:41:05.175Z,1.57
2022-08-09T01:43:51.672Z,2.00
2022-08-09T01:46:29.535Z,1.52
2022-08-09T01:49:10.614Z,1.70
2022-08-09T01:51:54.166Z,1.58
2022-08-09T01:54:32.839Z,1.77
2022-08-09T01:57:09.650Z,1.65
2022-08-09T01:59:51.570Z,1.58
2022-08-09T02:02:30.090Z,1.60
2022-08-09T02:05:15.355Z,1.42
2022-08-09T02:08:39.435Z,1.90
2022-08-09T02:10:51.241Z,1.60
2022-08-09T02:13:37.733Z,2.00
2022-08-09T02:16:15.942Z,1.70
2022-08-09T02:18:49.142Z,1.70
2022-08-09T02:21:24.557Z,1.83
2022-08-09T02:24:04.753Z,1.42
2022-08-09T02:26:40.005Z,1.67
2022-08-09T02:29:19.793Z,1.67
2022-08-09T02:32:00.221Z,1.60
2022-08-09T02:34:41.704Z,2.00
2022-08-09T02:37:31.802Z,1.60
2022-08-09T02:40:10.365Z,2.17
2022-08-09T02:42:51.245Z,1.50
2022-08-09T02:45:28.727Z,2.38
2022-08-09T02:48:12.297Z,1.65
2022-08-09T02:51:02.666Z,2.00
2022-08-09T02:53:39.131Z,1.92
2022-08-09T02:56:18.078Z,1.77
2022-08-09T02:58:55.429Z,1.80
2022-08-09T03:01:42.859Z,2.15
2022-08-09T03:04:28.795Z,1.88
2022-08-09T03:07:12.164Z,1.73
2022-08-09T03:09:54.381Z,2.10
2022-08-09T03:12:31.100Z,1.70
2022-08-09T03:15:06.028Z,1.67
2022-08-09T03:17:43.593Z,2.23
2022-08-09T03:20:19.044Z,1.98
2022-08-09T03:22:58.447Z,1.92
2022-08-09T03:25:58.435Z,2.20
2022-08-09T03:28:38.515Z,2.30
2022-08-09T03:31:21.252Z,1.90
2022-08-09T03:33:58.148Z,1.70
2022-08-09T03:36:32.879Z,2.10
2022-08-09T03:39:07.027Z,2.30
2022-08-09T03:41:48.257Z,2.05
2022-08-09T03:44:22.403Z,2.28
2022-08-09T03:47:05.303Z,2.17
2022-08-09T03:49:42.021Z,2.40
2022-08-09T03:52:34.657Z,2.20
2022-08-09T03:55:10.756Z,2.80
2022-08-09T03:58:03.479Z,2.40
2022-08-09T04:00:43.919Z,2.90
2022-08-09T04:03:24.700Z,2.42
2022-08-09T04:06:09.458Z,2.53
2022-08-09T04:08:46.765Z,2.95
2022-08-09T04:11:19.851Z,2.80
2022-08-09T04:14:54.020Z,2.45
2022-08-09T04:16:45.746Z,2.75
2022-08-09T04:19:30.305Z,2.70
2022-08-09T04:22:13.196Z,3.00
2022-08-09T04:24:47.720Z,2.97
2022-08-09T04:27:22.500Z,2.72
2022-08-09T04:29:55.580Z,3.03
2022-08-09T04:32:31.472Z,2.90
2022-08-09T04:37:46.470Z,2.92
2022-08-09T04:40:36.083Z,3.08
2022-08-09T04:43:09.242Z,3.03
2022-08-09T04:45:53.690Z,3.20
2022-08-09T04:48:33.213Z,3.55
2022-08-09T04:51:06.764Z,3.33
2022-08-09T04:53:42.931Z,2.92
2022-08-09T04:56:20.026Z,3.63
2022-08-09T04:58:58.908Z,3.88
2022-08-09T05:01:32.611Z,3.90
2022-08-09T05:04:06.440Z,3.53
2022-08-09T05:06:40.152Z,3.50
2022-08-09T05:09:17.157Z,3.00
2022-08-09T05:11:51.488Z,4.07
2022-08-09T05:14:26.908Z,3.97
2022-08-09T05:17:00.012Z,3.47
2022-08-09T05:19:45.957Z,3.72
2022-08-09T05:22:35.971Z,3.85
2022-08-09T05:25:15.128Z,3.88
2022-08-09T05:27:50.737Z,3.72
2022-08-09T05:30:23.796Z,3.75
2022-08-09T05:33:02.989Z,3.58
2022-08-09T05:35:46.688Z,3.70
2022-08-09T05:38:23.018Z,4.32
2022-08-09T05:41:00.852Z,3.50
2022-08-09T05:43:36.333Z,3.80
2022-08-09T05:46:10.691Z,3.67
2022-08-09T05:48:44.167Z,4.28
2022-08-09T05:51:41.704Z,3.75
2022-08-09T05:54:14.985Z,3.22
2022-08-09T05:56:54.887Z,2.95
2022-08-09T05:59:31.014Z,3.10
2022-08-09T06:02:05.349Z,2.72
2022-08-09T06:04:44.741Z,2.90
2022-08-09T06:07:21.677Z,2.67
2022-08-09T06:10:02.763Z,2.78
2022-08-09T06:12:36.045Z,2.67
2022-08-09T06:15:12.865Z,3.13
2022-08-09T06:17:47.515Z,2.78
2022-08-09T06:20:20.760Z,3.08
2022-08-09T06:22:54.037Z,2.90
2022-08-09T06:25:27.192Z,3.05
2022-08-09T06:28:00.272Z,2.92
2022-08-09T06:30:36.809Z,2.70
2022-08-09T06:33:30.615Z,2.47
2022-08-09T06:36:02.991Z,2.50
2022-08-09T06:38:47.251Z,3.25
2022-08-09T06:41:23.302Z,2.55
2022-08-09T06:44:18.071Z,1.95
2022-08-09T06:46:55.202Z,2.58
2022-08-09T06:49:44.884Z,2.65
2022-08-09T06:52:23.578Z,2.45
2022-08-09T06:54:58.189Z,2.80
2022-08-09T06:58:01.573Z,2.47
2022-08-09T07:00:49.652Z,2.35
2022-08-09T07:03:20.149Z,2.55
2022-08-09T07:06:03.561Z,2.40
2022-08-09T07:08:39.423Z,2.10
2022-08-09T07:11:12.949Z,1.80
2022-08-09T07:14:04.244Z,2.03
2022-08-09T07:16:44.711Z,2.03
2022-08-09T07:19:23.917Z,2.00
2022-08-09T07:21:59.773Z,2.42
2022-08-09T07:24:40.205Z,2.20
2022-08-09T07:27:26.321Z,2.42
2022-08-09T07:32:41.091Z,1.90
2022-08-09T07:35:16.730Z,2.00
2022-08-09T07:37:52.080Z,2.28
2022-08-09T07:40:37.378Z,2.72
2022-08-09T07:43:20.384Z,1.83
2022-08-09T07:46:03.044Z,2.03
2022-08-09T07:48:36.240Z,2.45
2022-08-09T07:52:06.333Z,1.90
2022-08-09T07:54:08.730Z,2.15
2022-08-09T07:56:49.248Z,2.00
2022-08-09T07:59:45.625Z,2.30
2022-08-09T08:02:19.184Z,1.98
2022-08-09T08:04:53.849Z,1.92
2022-08-09T08:08:43.575Z,2.13
2022-08-09T08:10:21.844Z,1.80
2022-08-09T08:13:00.434Z,1.88
2022-08-09T08:15:37.589Z,1.70
2022-08-09T08:18:14.426Z,1.48
2022-08-09T08:20:47.660Z,1.60
2022-08-09T08:23:22.068Z,1.30
2022-08-09T08:26:08.112Z,1.45
2022-08-09T08:28:45.361Z,1.45
2022-08-09T08:31:18.482Z,1.25
2022-08-09T08:33:53.099Z,1.45
2022-08-09T08:36:30.770Z,1.42
2022-08-09T08:39:05.783Z,1.10
2022-08-09T08:41:50.606Z,1.33
2022-08-09T08:44:29.387Z,1.15
2022-08-09T08:47:12.238Z,1.45
2022-08-09T08:52:57.413Z,1.13
2022-08-09T08:55:23.434Z,1.13
2022-08-09T08:57:58.288Z,1.00
2022-08-09T09:00:34.210Z,1.67
2022-08-09T09:03:08.230Z,1.05
2022-08-09T09:06:03.252Z,1.13
2022-08-09T09:08:42.405Z,1.60
2022-08-09T09:11:19.838Z,1.70
2022-08-09T09:13:58.620Z,1.27
2022-08-09T09:22:11.897Z,0.90
2022-08-09T09:24:47.679Z,0.90
2022-08-09T09:28:05.075Z,0.70
2022-08-09T09:30:40.164Z,1.40
2022-08-09T09:33:17.340Z,1.38
2022-08-09T09:36:02.626Z,1.17
2022-08-09T09:38:48.321Z,0.80
2022-08-09T09:41:49.089Z,0.82
2022-08-09T09:44:31.612Z,1.65
2022-08-09T09:47:08.501Z,1.08
2022-08-09T09:50:14.457Z,0.80
2022-08-09T09:52:37.254Z,1.10
2022-08-09T09:55:24.077Z,0.95
2022-08-09T09:58:16.385Z,1.05
2022-08-09T10:00:59.685Z,1.00
2022-08-09T10:03:57.836Z,0.80
2022-08-09T10:06:42.357Z,1.17
2022-08-09T10:09:22.301Z,2.53
2022-08-09T10:12:14.230Z,2.00
2022-08-09T10:15:04.807Z,1.02
2022-08-09T10:17:55.304Z,0.80
2022-08-09T10:20:32.520Z,1.00
2022-08-09T10:23:20.162Z,1.00
2022-08-09T10:26:06.307Z,1.00
2022-08-09T10:28:48.805Z,0.73
2022-08-09T10:34:32.823Z,0.77
2022-08-09T10:37:09.759Z,1.20
2022-08-09T10:39:49.279Z,0.70
2022-08-09T10:42:26.913Z,1.05
2022-08-09T10:45:04.403Z,0.82
2022-08-09T10:48:26.626Z,0.82
2022-08-09T10:51:12.108Z,0.75
2022-08-09T10:54:04.801Z,0.93
2022-08-09T10:56:40.307Z,0.75
2022-08-09T10:59:43.264Z,0.80
2022-08-09T11:03:11.918Z,1.02
2022-08-09T11:05:31.603Z,1.20
2022-08-09T11:08:35.236Z,0.90
2022-08-09T11:11:19.647Z,1.17
2022-08-09T11:14:32.028Z,0.85
2022-08-09T11:17:53.317Z,0.90
2022-08-09T11:20:49.656Z,0.73
2022-08-09T11:23:30.236Z,0.95
2022-08-09T11:26:04.106Z,0.60
2022-08-09T11:31:49.043Z,0.80
2022-08-09T11:34:33.689Z,0.90
2022-08-09T11:37:18.269Z,0.68
2022-08-09T11:40:06.013Z,0.80
2022-08-09T11:42:40.888Z,0.77
2022-08-09T11:45:42.597Z,0.70
2022-08-09T11:48:26.828Z,0.82
2022-08-09T11:52:49.360Z,0.80
2022-08-09T11:54:28.264Z,0.77
2022-08-09T11:57:47.949Z,1.00
2022-08-09T12:00:33.712Z,0.90
2022-08-09T12:03:55.946Z,0.88
2022-08-09T12:06:13.077Z,0.82
2022-08-09T12:08:51.215Z,1.00
2022-08-09T12:11:26.495Z,1.08
2022-08-09T12:14:09.189Z,0.75
2022-08-09T12:16:45.720Z,0.95
2022-08-09T12:19:29.786Z,0.90
2022-08-09T12:22:05.332Z,0.82
2022-08-09T12:24:39.068Z,0.90
2022-08-09T12:29:11.737Z,0.80
2022-08-09T12:30:36.642Z,0.60
2022-08-09T12:33:08.978Z,0.75
2022-08-09T12:35:44.584Z,1.00
2022-08-09T12:38:37.565Z,0.70
2022-08-09T12:41:24.429Z,0.95
2022-08-09T12:44:05.258Z,0.60
2022-08-09T12:46:41.744Z,0.93
2022-08-09T12:49:18.006Z,0.82
2022-08-09T12:52:02.359Z,0.90
2022-08-09T12:55:03.205Z,0.73
2022-08-09T12:57:46.414Z,1.42
2022-08-09T13:00:25.318Z,1.15
2022-08-09T13:03:00.440Z,0.93
2022-08-09T13:05:51.690Z,0.73
2022-08-09T13:08:40.360Z,0.63
2022-08-09T13:11:25.916Z,1.00
2022-08-09T13:14:43.717Z,0.77
2022-08-09T13:16:56.551Z,0.63
2022-08-09T13:20:09.907Z,0.93
2022-08-09T13:22:35.319Z,0.90
2022-08-09T13:25:18.251Z,1.30
2022-08-09T13:27:55.984Z,1.00
2022-08-09T13:30:49.324Z,1.13
2022-08-09T13:33:24.079Z,0.98
2022-08-09T13:36:38.708Z,0.90
2022-08-09T13:38:57.752Z,0.73
2022-08-09T13:41:57.132Z,0.77
2022-08-09T13:44:25.024Z,0.80
2022-08-09T13:47:25.551Z,0.90
2022-08-09T13:49:57.220Z,1.00
2022-08-09T13:52:33.574Z,0.70
2022-08-09T13:55:13.756Z,1.00
2022-08-09T13:57:55.982Z,1.35
2022-08-09T14:00:36.591Z,1.08
2022-08-09T14:04:01.760Z,0.80
2022-08-09T14:06:14.608Z,0.57
2022-08-09T14:08:58.709Z,0.80
2022-08-09T14:11:33.165Z,0.70
2022-08-09T14:14:26.171Z,0.80
2022-08-09T14:17:00.182Z,0.80
2022-08-09T14:19:34.553Z,0.82
2022-08-09T14:22:09.006Z,0.80
2022-08-09T14:24:53.366Z,0.90
2022-08-09T14:27:28.736Z,0.73
2022-08-09T14:30:37.159Z,0.77
2022-08-09T14:33:02.494Z,1.27
2022-08-09T14:35:53.004Z,0.80
2022-08-09T14:38:26.402Z,0.90
2022-08-09T14:41:02.297Z,0.70
2022-08-09T14:43:54.082Z,0.88
2022-08-09T14:46:54.753Z,0.70
2022-08-09T14:49:24.978Z,1.20
2022-08-09T14:51:58.339Z,1.10
2022-08-09T14:54:33.955Z,0.90
2022-08-09T14:57:07.931Z,0.80
2022-08-09T14:59:46.703Z,0.75
2022-08-09T15:02:21.625Z,0.80
2022-08-09T15:04:54.541Z,0.75
2022-08-09T15:07:27.999Z,1.50
2022-08-09T15:10:11.012Z,0.95
2022-08-09T15:12:47.316Z,0.98
2022-08-09T15:15:23.007Z,0.60
2022-08-09T15:17:55.921Z,0.80
2022-08-09T15:21:55.796Z,0.50
2022-08-09T15:24:02.029Z,0.63
2022-08-09T15:26:19.021Z,0.70
2022-08-09T15:29:05.519Z,0.80
2022-08-09T15:31:42.316Z,0.90
2022-08-09T15:34:34.687Z,1.15
2022-08-09T15:37:37.939Z,1.10
2022-08-09T15:40:25.354Z,1.10
2022-08-09T15:43:05.539Z,1.27
2022-08-09T15:46:08.027Z,0.75
2022-08-09T15:48:33.271Z,0.80
2022-08-09T15:51:30.035Z,0.90
2022-08-09T15:54:03.417Z,0.93
2022-08-09T15:56:40.967Z,1.00
2022-08-09T15:59:14.148Z,0.77
2022-08-09T16:01:47.064Z,0.55
2022-08-09T16:04:23.124Z,0.70
2022-08-09T16:06:56.205Z,0.80
2022-08-09T16:09:32.380Z,0.77
2022-08-09T16:12:22.309Z,1.05
2022-08-09T16:14:59.439Z,1.20
2022-08-09T16:17:32.491Z,0.90
2022-08-09T16:20:10.120Z,0.90
2022-08-09T16:22:48.598Z,0.63
2022-08-09T16:25:36.794Z,0.88
2022-08-09T16:28:13.750Z,0.68
2022-08-09T16:30:58.650Z,0.90
2022-08-09T16:33:34.877Z,0.70
2022-08-09T16:36:14.510Z,1.15
2022-08-09T16:38:53.440Z,0.70
2022-08-09T16:42:02.283Z,0.93
2022-08-09T16:44:21.532Z,0.93
2022-08-09T16:48:38.469Z,1.30
2022-08-09T16:50:32.282Z,1.00
2022-08-09T16:52:51.852Z,1.15
2022-08-09T16:55:25.005Z,1.60
2022-08-09T16:58:09.395Z,0.98
2022-08-09T17:00:46.593Z,1.00
2022-08-09T17:03:21.974Z,1.30
2022-08-09T17:06:03.478Z,1.25
2022-08-09T17:09:01.786Z,0.90
2022-08-09T17:11:40.390Z,1.20
2022-08-09T17:14:26.996Z,1.50
2022-08-09T17:17:02.820Z,1.60
2022-08-09T17:20:05.210Z,1.27
2022-08-09T17:22:31.130Z,1.10
2022-08-09T17:25:10.019Z,1.00
2022-08-09T17:27:48.874Z,0.95
2022-08-09T17:30:29.226Z,1.50
2022-08-09T17:33:05.723Z,1.80
2022-08-09T17:35:55.888Z,1.27
2022-08-09T17:38:33.981Z,1.20
2022-08-09T17:41:12.993Z,1.15
2022-08-09T17:44:37.862Z,1.30
2022-08-09T17:46:39.927Z,0.90
2022-08-09T17:49:28.435Z,1.23
2022-08-09T17:52:04.444Z,1.20
2022-08-09T17:54:38.613Z,1.30
2022-08-09T17:57:20.527Z,1.40
2022-08-09T18:00:09.768Z,1.10
2022-08-09T18:02:50.260Z,1.60
2022-08-09T18:05:43.623Z,1.38
2022-08-09T18:08:17.192Z,1.20
2022-08-09T18:11:00.798Z,1.58
2022-08-09T18:13:39.560Z,0.90
2022-08-09T18:16:16.866Z,1.20
2022-08-09T18:19:04.235Z,1.10
2022-08-09T18:21:56.661Z,1.10
2022-08-09T18:24:29.797Z,1.30
2022-08-09T18:27:06.792Z,1.33
2022-08-09T18:30:34.773Z,1.45
2022-08-09T18:32:36.442Z,1.50
2022-08-09T18:35:11.022Z,1.38
2022-08-09T18:37:47.311Z,1.35
2022-08-09T18:40:27.077Z,1.40
2022-08-09T18:43:00.180Z,1.35
2022-08-09T18:46:47.909Z,1.75
2022-08-09T18:48:30.277Z,1.38
2022-08-09T18:51:05.997Z,1.50
2022-08-09T18:53:56.506Z,1.45
2022-08-09T18:56:33.248Z,1.30
2022-08-09T18:59:06.320Z,1.30
2022-08-09T19:01:43.577Z,1.38
2022-08-09T19:07:08.499Z,1.27
2022-08-09T19:10:15.720Z,1.65
2022-08-09T19:12:37.958Z,2.03
2022-08-09T19:15:12.237Z,1.48
2022-08-09T19:17:56.255Z,0.98
2022-08-09T19:20:34.370Z,1.20
2022-08-09T19:23:19.222Z,1.15
2022-08-09T19:26:13.701Z,1.63
2022-08-09T19:28:49.144Z,1.20
2022-08-09T19:31:23.317Z,1.30
2022-08-09T19:33:58.100Z,1.35
2022-08-09T19:36:32.858Z,1.40
2022-08-09T19:39:06.230Z,1.27
2022-08-09T19:41:42.384Z,1.25
2022-08-09T19:44:17.650Z,1.10
2022-08-09T19:46:53.493Z,1.55
2022-08-09T19:50:05.199Z,1.35
2022-08-09T19:52:21.578Z,2.00
2022-08-09T19:54:55.253Z,5.07
2022-08-09T19:57:28.296Z,2.08
2022-08-09T20:00:06.856Z,1.60
2022-08-09T20:04:18.484Z,1.23
2022-08-09T20:05:46.315Z,1.60
2022-08-09T20:08:35.045Z,1.60
2022-08-09T20:11:08.550Z,1.77
2022-08-09T20:13:41.572Z,1.85
2022-08-09T20:16:34.152Z,2.63
2022-08-09T20:19:49.619Z,1.33
2022-08-09T20:22:04.811Z,1.60
2022-08-09T20:24:53.281Z,1.88
2022-08-09T20:27:29.379Z,1.75
2022-08-09T20:30:02.768Z,1.40
2022-08-09T20:32:37.731Z,1.30
2022-08-09T20:35:11.536Z,1.60
2022-08-09T20:38:20.669Z,1.40
2022-08-09T20:40:41.016Z,1.50
2022-08-09T20:43:19.144Z,1.80
2022-08-09T20:46:15.530Z,1.80
2022-08-09T20:48:51.156Z,1.70
2022-08-09T20:51:24.355Z,2.63
2022-08-09T20:53:58.748Z,2.10
2022-08-09T20:56:36.836Z,2.05
2022-08-09T20:59:10.095Z,1.83
2022-08-09T21:01:51.077Z,1.90
2022-08-09T21:05:52.735Z,2.00
2022-08-09T21:07:19.419Z,1.80
2022-08-09T21:09:59.395Z,2.90
2022-08-09T21:12:32.724Z,2.72
2022-08-09T21:15:12.459Z,2.28
2022-08-09T21:18:23.189Z,2.22
2022-08-09T21:20:39.993Z,2.72
2022-08-09T21:23:15.178Z,2.03
2022-08-09T21:25:56.086Z,1.60
2022-08-09T21:28:36.264Z,1.70
2022-08-09T21:31:17.532Z,1.60
2022-08-09T21:33:56.626Z,1.70
2022-08-09T21:36:30.527Z,2.33
2022-08-09T21:39:05.810Z,1.85
2022-08-09T21:42:03.689Z,1.90
2022-08-09T21:44:35.359Z,1.83
2022-08-09T21:47:17.367Z,2.00
2022-08-09T21:49:51.118Z,1.50
2022-08-09T21:52:24.089Z,1.60
2022-08-09T21:55:03.698Z,1.80
2022-08-09T21:57:59.523Z,1.65
2022-08-09T22:00:33.502Z,1.92
2022-08-09T22:03:19.090Z,1.70
2022-08-09T22:05:58.612Z,1.67
2022-08-09T22:08:32.165Z,1.85
2022-08-09T22:12:06.389Z,1.90
2022-08-09T22:14:00.253Z,1.85
2022-08-09T22:16:37.206Z,1.67
2022-08-09T22:19:57.762Z,1.90
2022-08-09T22:22:04.023Z,1.70
2022-08-09T22:24:37.674Z,2.05
2022-08-09T22:27:26.888Z,1.92
2022-08-09T22:30:05.969Z,1.70
2022-08-09T22:32:40.948Z,1.70
2022-08-09T22:36:03.041Z,2.35
2022-08-09T22:38:14.725Z,2.08
2022-08-09T22:40:49.104Z,2.03
2022-08-09T22:44:02.830Z,2.45
2022-08-09T22:48:12.786Z,2.03
2022-08-09T22:49:19.160Z,2.15
2022-08-09T22:51:57.391Z,2.20
2022-08-09T22:54:30.637Z,2.00
2022-08-09T22:57:04.188Z,2.50
2022-08-09T22:59:55.636Z,2.15
2022-08-09T23:02:30.929Z,2.55
2022-08-09T23:05:06.063Z,3.05
2022-08-09T23:08:29.139Z,2.65
2022-08-09T23:10:50.235Z,2.47
2022-08-09T23:13:28.723Z,2.40
2022-08-09T23:16:02.652Z,2.60
2022-08-09T23:18:37.932Z,2.25
2022-08-09T23:21:12.552Z,2.47
2022-08-09T23:24:01.584Z,2.30
2022-08-09T23:26:40.272Z,2.38
2022-08-09T23:29:18.211Z,2.08
2022-08-09T23:31:54.424Z,2.60
2022-08-09T23:34:28.989Z,2.67
2022-08-09T23:37:02.646Z,2.40
2022-08-09T23:39:35.774Z,2.20
2022-08-09T23:42:08.874Z,2.30
2022-08-09T23:44:41.863Z,2.25
2022-08-09T23:47:14.877Z,2.35
2022-08-09T23:49:49.138Z,2.38
2022-08-09T23:52:34.140Z,2.28
2022-08-09T23:55:07.556Z,1.95
2022-08-09T23:57:52.619Z,2.42
